Time;durP1;ratioP1;P1;durP2;ratioP2;P2;SDS_P1;SDS_P2;PMS_P1;PMS_P2;Temp;Humidity;BMP_temperature;BMP_pressure;BME280_temperature;BME280_humidity;BME280_pressure;Samples;Min_cycle;Max_cycle;Signal;HPM_P1;HPM_P2
2022/08/13 00:02:31;;;;;;;5.22;3.45;;;;;;;;;;5049433;28;20029;-73
2022/08/13 00:04:59;;;;;;;5.18;3.28;;;;;;;;;;5032755;28;20044;-73
2022/08/13 00:07:25;;;;;;;5.30;3.22;;;;;;;;;;5034492;28;20053;-74
2022/08/13 00:09:50;;;;;;;4.65;3.60;;;;;;;;;;5043938;28;20052;-73
2022/08/13 00:15:10;;;;;;;6.28;3.20;;;;;;;;;;5033196;28;20499;-73
2022/08/13 00:17:37;;;;;;;7.00;3.70;;;;;;;;;;5042777;28;20025;-73
2022/08/13 00:20:03;;;;;;;9.18;3.22;;;;;;;;;;5046117;28;20438;-73
2022/08/13 00:22:29;;;;;;;6.05;3.78;;;;;;;;;;5046485;28;20071;-74
2022/08/13 00:24:55;;;;;;;6.00;3.00;;;;;;;;;;5049234;28;20499;-74
2022/08/13 00:27:22;;;;;;;7.25;3.60;;;;;;;;;;5048738;28;20174;-74
2022/08/13 00:29:47;;;;;;;5.05;3.40;;;;;;;;;;5036999;28;20017;-74
2022/08/13 00:32:14;;;;;;;5.25;3.47;;;;;;;;;;5054999;28;20122;-74
2022/08/13 00:34:39;;;;;;;5.55;3.50;;;;;;;;;;5044127;28;20152;-74
2022/08/13 00:37:09;;;;;;;5.72;3.60;;;;;;;;;;5042424;28;20064;-74
2022/08/13 00:39:34;;;;;;;8.20;3.30;;;;;;;;;;5046523;28;20040;-74
2022/08/13 00:41:59;;;;;;;6.18;3.42;;;;;;;;;;5053567;28;20539;-73
2022/08/13 00:44:25;;;;;;;6.18;3.58;;;;;;;;;;5042375;28;20029;-74
2022/08/13 00:48:41;;;;;;;4.45;3.25;;;;;;;;;;5045582;28;20461;-73
2022/08/13 00:49:36;;;;;;;5.80;3.60;;;;;;;;;;5039924;28;20032;-74
2022/08/13 00:52:01;;;;;;;6.25;3.60;;;;;;;;;;5045398;28;20044;-73
2022/08/13 00:54:27;;;;;;;6.13;3.63;;;;;;;;;;5049627;28;20025;-75
2022/08/13 00:56:52;;;;;;;7.15;4.13;;;;;;;;;;5046866;28;20427;-74
2022/08/13 00:59:17;;;;;;;6.47;3.83;;;;;;;;;;5049400;28;20029;-73
2022/08/13 01:01:44;;;;;;;6.18;4.00;;;;;;;;;;5051689;28;20056;-74
2022/08/13 01:04:09;;;;;;;9.30;4.13;;;;;;;;;;5052081;28;20035;-74
2022/08/13 01:06:35;;;;;;;7.85;3.78;;;;;;;;;;5044434;28;20034;-73
2022/08/13 01:09:01;;;;;;;5.97;3.85;;;;;;;;;;5041867;28;20049;-74
2022/08/13 01:11:27;;;;;;;7.97;4.38;;;;;;;;;;5038634;28;20024;-73
2022/08/13 01:13:52;;;;;;;7.57;3.92;;;;;;;;;;5041318;28;20107;-73
2022/08/13 01:16:18;;;;;;;6.85;4.03;;;;;;;;;;5054289;28;20070;-74
2022/08/13 01:18:49;;;;;;;7.40;3.67;;;;;;;;;;5041376;28;20105;-72
2022/08/13 01:21:15;;;;;;;5.50;3.70;;;;;;;;;;5049710;28;20472;-74
2022/08/13 01:23:45;;;;;;;4.97;3.55;;;;;;;;;;5034194;28;20036;-73
2022/08/13 01:26:11;;;;;;;10.63;4.15;;;;;;;;;;5045782;28;20413;-73
2022/08/13 01:28:38;;;;;;;12.57;3.72;;;;;;;;;;5043403;28;20164;-76
2022/08/13 01:31:05;;;;;;;5.43;4.15;;;;;;;;;;5045261;28;20022;-74
2022/08/13 01:33:35;;;;;;;7.70;4.53;;;;;;;;;;5048459;28;20017;-74
2022/08/13 01:36:01;;;;;;;5.82;4.20;;;;;;;;;;5045185;28;20037;-74
2022/08/13 01:38:26;;;;;;;9.13;5.00;;;;;;;;;;5043808;28;20377;-74
2022/08/13 01:40:52;;;;;;;6.43;4.40;;;;;;;;;;5039226;28;20019;-72
2022/08/13 01:43:17;;;;;;;7.07;4.28;;;;;;;;;;5042823;28;20037;-71
2022/08/13 01:45:44;;;;;;;5.68;4.30;;;;;;;;;;5047599;28;20091;-72
2022/08/13 01:50:53;;;;;;;;;;;;;;;;;;5040920;28;20040;-73
2022/08/13 01:53:19;;;;;;;8.27;4.43;;;;;;;;;;5044982;28;20344;-73
2022/08/13 01:55:46;;;;;;;6.32;4.75;;;;;;;;;;5030987;28;20824;-73
2022/08/13 01:58:13;;;;;;;8.57;4.90;;;;;;;;;;5036998;28;20021;-72
2022/08/13 02:00:40;;;;;;;7.43;4.57;;;;;;;;;;5043032;28;20517;-73
2022/08/13 02:03:09;;;;;;;10.88;5.47;;;;;;;;;;5037125;28;20045;-74
2022/08/13 02:05:38;;;;;;;8.15;5.28;;;;;;;;;;5044795;28;20021;-74
2022/08/13 02:08:03;;;;;;;9.75;5.07;;;;;;;;;;5041084;28;20108;-73
2022/08/13 02:10:29;;;;;;;7.10;5.22;;;;;;;;;;5042682;28;20100;-74
2022/08/13 02:12:55;;;;;;;10.45;5.50;;;;;;;;;;5046341;28;20029;-73
2022/08/13 02:15:21;;;;;;;8.65;5.43;;;;;;;;;;5049400;28;20036;-73
2022/08/13 02:17:46;;;;;;;8.98;5.60;;;;;;;;;;5045596;28;20056;-73
2022/08/13 02:20:17;;;;;;;7.07;5.38;;;;;;;;;;5049532;28;20029;-73
2022/08/13 02:22:46;;;;;;;7.90;5.60;;;;;;;;;;5047345;28;20049;-72
2022/08/13 02:25:12;;;;;;;8.43;5.72;;;;;;;;;;5043479;28;20037;-73
2022/08/13 02:27:38;;;;;;;10.50;6.40;;;;;;;;;;5043748;28;20055;-74
2022/08/13 02:30:05;;;;;;;7.22;5.38;;;;;;;;;;5040711;28;20025;-74
2022/08/13 02:32:34;;;;;;;12.73;5.82;;;;;;;;;;5039371;28;20037;-73
2022/08/13 02:34:59;;;;;;;8.45;5.30;;;;;;;;;;5039080;28;20084;-73
2022/08/13 02:37:24;;;;;;;9.60;6.28;;;;;;;;;;5049665;28;20025;-72
2022/08/13 02:39:51;;;;;;;8.55;6.05;;;;;;;;;;5045696;28;20032;-74
2022/08/13 02:42:16;;;;;;;9.43;5.63;;;;;;;;;;5049991;28;20105;-73
2022/08/13 02:44:43;;;;;;;10.07;6.07;;;;;;;;;;5039748;28;20093;-73
2022/08/13 02:47:13;;;;;;;9.27;6.07;;;;;;;;;;5052909;28;20075;-73
2022/08/13 02:49:40;;;;;;;9.82;6.63;;;;;;;;;;5040134;28;20013;-72
2022/08/13 02:52:05;;;;;;;8.52;6.57;;;;;;;;;;5049248;28;20021;-73
2022/08/13 02:54:32;;;;;;;10.90;6.68;;;;;;;;;;5040572;28;20129;-74
2022/08/13 02:56:57;;;;;;;11.82;7.57;;;;;;;;;;5039156;28;20022;-74
2022/08/13 02:59:24;;;;;;;12.13;6.88;;;;;;;;;;5041870;28;20025;-73
2022/08/13 03:01:51;;;;;;;9.15;6.85;;;;;;;;;;5039320;28;20033;-73
2022/08/13 03:04:16;;;;;;;11.15;7.60;;;;;;;;;;5041470;28;20086;-73
2022/08/13 03:06:42;;;;;;;11.27;7.45;;;;;;;;;;5044162;28;20020;-73
2022/08/13 03:09:07;;;;;;;13.18;7.97;;;;;;;;;;5039799;28;20492;-73
2022/08/13 03:11:33;;;;;;;13.52;7.15;;;;;;;;;;5042266;28;20100;-73
2022/08/13 03:14:05;;;;;;;13.02;7.43;;;;;;;;;;5046808;28;20016;-74
2022/08/13 03:16:31;;;;;;;10.50;7.87;;;;;;;;;;5038877;28;20029;-73
2022/08/13 03:18:57;;;;;;;11.95;8.55;;;;;;;;;;5042584;28;20415;-73
2022/08/13 03:21:24;;;;;;;13.82;8.25;;;;;;;;;;5041477;28;20411;-73
2022/08/13 03:23:51;;;;;;;14.95;8.45;;;;;;;;;;5042376;28;20488;-74
2022/08/13 03:26:16;;;;;;;11.70;7.75;;;;;;;;;;5042537;28;20017;-73
2022/08/13 03:28:42;;;;;;;11.85;8.20;;;;;;;;;;5047087;28;20032;-73
2022/08/13 03:31:07;;;;;;;11.02;8.13;;;;;;;;;;5046173;28;20037;-73
2022/08/13 03:33:32;;;;;;;14.05;8.90;;;;;;;;;;5044252;28;20025;-73
2022/08/13 03:35:58;;;;;;;13.57;8.80;;;;;;;;;;5043177;28;20060;-73
2022/08/13 03:38:23;;;;;;;13.02;8.68;;;;;;;;;;5051882;28;20036;-72
2022/08/13 03:41:01;;;;;;;11.90;8.55;;;;;;;;;;5047265;28;20354;-73
2022/08/13 03:43:32;;;;;;;13.90;8.85;;;;;;;;;;5047197;28;20029;-73
2022/08/13 03:45:58;;;;;;;13.70;9.38;;;;;;;;;;5047389;28;20036;-73
2022/08/13 03:48:24;;;;;;;14.85;9.05;;;;;;;;;;5052537;28;20453;-73
2022/08/13 03:50:49;;;;;;;16.63;9.68;;;;;;;;;;5048084;28;20020;-73
2022/08/13 03:53:18;;;;;;;14.63;9.80;;;;;;;;;;5037966;28;20133;-73
2022/08/13 03:55:43;;;;;;;18.48;9.85;;;;;;;;;;5042320;28;20025;-73
2022/08/13 03:58:10;;;;;;;16.05;9.93;;;;;;;;;;5041588;28;20021;-75
2022/08/13 04:00:36;;;;;;;17.13;10.13;;;;;;;;;;5049148;28;20025;-74
2022/08/13 04:03:12;;;;;;;14.30;9.82;;;;;;;;;;5049943;28;20491;-76
2022/08/13 04:05:38;;;;;;;17.90;9.52;;;;;;;;;;5040045;28;20029;-75
2022/08/13 04:08:04;;;;;;;16.83;11.07;;;;;;;;;;5045751;28;20373;-74
2022/08/13 04:10:29;;;;;;;16.00;10.57;;;;;;;;;;5052162;28;20104;-74
2022/08/13 04:12:54;;;;;;;16.38;10.95;;;;;;;;;;5043573;28;20029;-73
2022/08/13 04:15:19;;;;;;;17.90;10.70;;;;;;;;;;5045326;28;20040;-73
2022/08/13 04:17:45;;;;;;;17.88;10.60;;;;;;;;;;5044535;28;20029;-73
2022/08/13 04:20:11;;;;;;;18.65;11.30;;;;;;;;;;5042441;28;20576;-73
2022/08/13 04:22:37;;;;;;;19.23;12.43;;;;;;;;;;5038780;28;20049;-73
2022/08/13 04:25:06;;;;;;;19.55;11.07;;;;;;;;;;5047199;28;20049;-72
2022/08/13 04:27:32;;;;;;;22.08;11.50;;;;;;;;;;5048482;28;20029;-76
2022/08/13 04:29:58;;;;;;;17.80;11.25;;;;;;;;;;5045903;28;20029;-73
2022/08/13 04:32:24;;;;;;;17.25;11.18;;;;;;;;;;5038991;28;20013;-73
2022/08/13 04:34:49;;;;;;;19.30;10.77;;;;;;;;;;5047112;28;20401;-73
2022/08/13 04:37:14;;;;;;;20.15;11.82;;;;;;;;;;5049737;28;20466;-74
2022/08/13 04:39:40;;;;;;;21.73;12.32;;;;;;;;;;5039385;28;20025;-74
2022/08/13 04:42:07;;;;;;;18.08;11.35;;;;;;;;;;5044176;28;20025;-73
2022/08/13 04:44:32;;;;;;;16.52;11.02;;;;;;;;;;5036633;28;20050;-72
2022/08/13 04:46:58;;;;;;;21.17;12.15;;;;;;;;;;5049709;28;20021;-73
2022/08/13 04:49:23;;;;;;;18.20;11.70;;;;;;;;;;5043000;28;20108;-72
2022/08/13 04:51:48;;;;;;;21.67;12.18;;;;;;;;;;5047509;28;20044;-72
2022/08/13 04:54:14;;;;;;;17.67;12.38;;;;;;;;;;5041268;28;20021;-72
2022/08/13 04:56:40;;;;;;;18.52;12.10;;;;;;;;;;5040195;28;20464;-73
2022/08/13 04:59:05;;;;;;;19.45;11.80;;;;;;;;;;5044664;28;20030;-72
2022/08/13 05:01:30;;;;;;;22.55;12.30;;;;;;;;;;5051363;28;20020;-71
2022/08/13 05:03:56;;;;;;;19.92;11.80;;;;;;;;;;5052658;28;20542;-72
2022/08/13 05:06:21;;;;;;;17.77;11.65;;;;;;;;;;5048952;28;20079;-72
2022/08/13 05:08:48;;;;;;;17.55;11.88;;;;;;;;;;5045287;28;20010;-72
2022/08/13 05:11:14;;;;;;;20.90;11.35;;;;;;;;;;5053322;28;20029;-72
2022/08/13 05:13:40;;;;;;;15.77;10.68;;;;;;;;;;5051015;28;20049;-73
2022/08/13 05:16:07;;;;;;;15.48;11.30;;;;;;;;;;5049496;28;20029;-73
2022/08/13 05:18:35;;;;;;;20.40;10.95;;;;;;;;;;5037239;28;20037;-72
2022/08/13 05:21:03;;;;;;;13.50;9.98;;;;;;;;;;5050914;28;20064;-73
2022/08/13 05:23:29;;;;;;;15.20;9.93;;;;;;;;;;5043185;28;20137;-72
2022/08/13 05:25:55;;;;;;;16.00;10.35;;;;;;;;;;5047962;28;20112;-72
2022/08/13 05:28:20;;;;;;;15.05;9.23;;;;;;;;;;5039372;28;20485;-72
2022/08/13 05:30:48;;;;;;;12.10;8.65;;;;;;;;;;5044136;28;20029;-72
2022/08/13 05:33:16;;;;;;;15.85;8.35;;;;;;;;;;5041863;28;20033;-72
2022/08/13 05:35:43;;;;;;;15.57;8.88;;;;;;;;;;5050176;28;20087;-72
2022/08/13 05:38:09;;;;;;;14.45;8.45;;;;;;;;;;5045169;28;20024;-72
2022/08/13 05:40:35;;;;;;;11.98;7.95;;;;;;;;;;5050423;28;20029;-73
2022/08/13 05:43:01;;;;;;;9.15;6.72;;;;;;;;;;5048898;28;20492;-73
2022/08/13 05:45:26;;;;;;;12.50;6.07;;;;;;;;;;5045948;28;20024;-72
2022/08/13 05:47:53;;;;;;;7.70;6.10;;;;;;;;;;5047450;28;20044;-73
2022/08/13 05:50:18;;;;;;;9.80;4.63;;;;;;;;;;5049763;28;20035;-73
2022/08/13 05:52:44;;;;;;;5.13;3.60;;;;;;;;;;5043026;28;20096;-73
2022/08/13 05:55:11;;;;;;;6.57;3.42;;;;;;;;;;5037311;28;20026;-73
2022/08/13 05:57:36;;;;;;;4.50;2.85;;;;;;;;;;5049148;28;20033;-74
2022/08/13 06:05:30;;;;;;;;;;;;;;;;;;5050050;28;20102;-73
2022/08/13 06:07:57;;;;;;;5.68;2.95;;;;;;;;;;5047097;28;20303;-73
2022/08/13 06:10:23;;;;;;;4.05;2.60;;;;;;;;;;5047203;28;20059;-73
2022/08/13 06:12:49;;;;;;;4.07;2.55;;;;;;;;;;5039384;28;20464;-73
2022/08/13 06:15:14;;;;;;;5.60;2.70;;;;;;;;;;5048367;28;20029;-74
2022/08/13 06:17:40;;;;;;;5.30;2.63;;;;;;;;;;5041872;28;20033;-74
2022/08/13 06:20:06;;;;;;;5.07;2.63;;;;;;;;;;5042090;28;20057;-75
2022/08/13 06:22:33;;;;;;;6.15;2.88;;;;;;;;;;5038081;28;20136;-74
2022/08/13 06:24:59;;;;;;;3.72;2.50;;;;;;;;;;5043947;28;20072;-73
2022/08/13 06:27:24;;;;;;;3.50;2.42;;;;;;;;;;5048774;28;20364;-73
2022/08/13 06:29:51;;;;;;;4.68;2.75;;;;;;;;;;5050606;28;20108;-74
2022/08/13 06:32:16;;;;;;;4.72;2.40;;;;;;;;;;5040392;28;20416;-74
2022/08/13 06:34:43;;;;;;;3.40;2.25;;;;;;;;;;5029931;28;20090;-74
2022/08/13 06:37:08;;;;;;;4.30;2.40;;;;;;;;;;5040366;28;20033;-74
2022/08/13 06:39:35;;;;;;;6.95;2.17;;;;;;;;;;5036818;28;20031;-74
2022/08/13 06:42:02;;;;;;;4.72;2.13;;;;;;;;;;5040990;28;20021;-74
2022/08/13 06:44:29;;;;;;;5.15;2.38;;;;;;;;;;5042801;28;20040;-74
2022/08/13 06:46:54;;;;;;;5.53;2.28;;;;;;;;;;5037798;28;20102;-75
2022/08/13 06:49:19;;;;;;;4.47;2.42;;;;;;;;;;5037902;28;20449;-74
2022/08/13 06:51:44;;;;;;;5.80;2.85;;;;;;;;;;5037964;28;20104;-74
2022/08/13 06:54:10;;;;;;;4.20;2.33;;;;;;;;;;5050348;28;20053;-75
2022/08/13 06:56:35;;;;;;;6.20;2.35;;;;;;;;;;5040628;28;20353;-74
2022/08/13 06:59:03;;;;;;;3.97;2.20;;;;;;;;;;5043308;28;20469;-75
2022/08/13 07:01:28;;;;;;;5.05;2.30;;;;;;;;;;5046662;28;20395;-74
2022/08/13 07:03:56;;;;;;;4.07;2.22;;;;;;;;;;5047642;28;20029;-75
2022/08/13 07:06:24;;;;;;;5.90;2.30;;;;;;;;;;5044668;28;20029;-73
2022/08/13 07:08:50;;;;;;;4.50;2.00;;;;;;;;;;5042310;28;20021;-73
2022/08/13 07:11:22;;;;;;;4.45;2.47;;;;;;;;;;5041790;28;20471;-75
2022/08/13 07:13:51;;;;;;;;;;;;;;;;;;5040609;28;20034;-75
2022/08/13 07:16:18;;;;;;;3.80;2.30;;;;;;;;;;5038358;28;19940;-75
2022/08/13 07:18:43;;;;;;;4.22;2.42;;;;;;;;;;5036439;28;20037;-75
2022/08/13 07:21:10;;;;;;;4.35;2.15;;;;;;;;;;5044158;28;20017;-74
2022/08/13 07:23:36;;;;;;;5.13;2.60;;;;;;;;;;5036153;28;20057;-75
2022/08/13 07:26:02;;;;;;;7.88;2.63;;;;;;;;;;5041511;28;20033;-75
2022/08/13 07:28:28;;;;;;;9.38;2.42;;;;;;;;;;5049311;28;20021;-75
2022/08/13 07:30:54;;;;;;;5.80;2.20;;;;;;;;;;5036185;28;20020;-75
2022/08/13 07:33:20;;;;;;;5.05;2.40;;;;;;;;;;5038189;28;20029;-75
2022/08/13 07:35:45;;;;;;;5.45;2.17;;;;;;;;;;5041554;28;20021;-74
2022/08/13 07:38:10;;;;;;;4.85;2.60;;;;;;;;;;5043782;28;20025;-74
2022/08/13 07:40:36;;;;;;;8.77;2.67;;;;;;;;;;5050315;28;20116;-75
2022/08/13 07:43:04;;;;;;;5.93;2.45;;;;;;;;;;5036484;28;20025;-74
2022/08/13 07:45:29;;;;;;;8.68;3.15;;;;;;;;;;5036108;28;20080;-74
2022/08/13 07:47:56;;;;;;;5.65;2.70;;;;;;;;;;5043555;28;20037;-74
2022/08/13 07:50:22;;;;;;;8.52;2.58;;;;;;;;;;5040823;28;20013;-75
2022/08/13 07:52:55;;;;;;;6.57;2.33;;;;;;;;;;5044922;28;20029;-74
2022/08/13 07:55:22;;;;;;;6.70;2.63;;;;;;;;;;5029975;28;20044;-74
2022/08/13 07:57:48;;;;;;;7.00;3.05;;;;;;;;;;5040694;28;20028;-74
2022/08/13 08:00:19;;;;;;;5.00;2.33;;;;;;;;;;5036923;28;20033;-76
2022/08/13 08:02:44;;;;;;;5.88;2.53;;;;;;;;;;5045680;28;20104;-75
2022/08/13 08:05:13;;;;;;;6.28;2.78;;;;;;;;;;5045513;28;20429;-75
2022/08/13 08:07:39;;;;;;;5.63;2.50;;;;;;;;;;5044474;28;20358;-74
2022/08/13 08:10:06;;;;;;;6.93;2.35;;;;;;;;;;5034981;28;20018;-74
2022/08/13 08:12:35;;;;;;;5.82;2.45;;;;;;;;;;5045008;28;20025;-75
2022/08/13 08:15:00;;;;;;;6.05;3.05;;;;;;;;;;5047548;28;20461;-76
2022/08/13 08:17:26;;;;;;;6.05;3.00;;;;;;;;;;5046066;28;20028;-75
2022/08/13 08:19:53;;;;;;;6.40;2.80;;;;;;;;;;5047017;28;20049;-76
2022/08/13 08:22:18;;;;;;;8.18;3.00;;;;;;;;;;5039948;28;20394;-75
2022/08/13 08:24:48;;;;;;;8.48;3.03;;;;;;;;;;5041012;28;20040;-75
2022/08/13 08:27:16;;;;;;;6.80;3.10;;;;;;;;;;5035194;28;20559;-75
2022/08/13 08:29:41;;;;;;;5.80;3.28;;;;;;;;;;5037684;28;20029;-75
2022/08/13 08:32:10;;;;;;;12.45;3.65;;;;;;;;;;5037353;28;20030;-75
2022/08/13 08:34:36;;;;;;;8.25;2.70;;;;;;;;;;5044352;28;20032;-75
2022/08/13 08:37:01;;;;;;;6.75;2.90;;;;;;;;;;5038961;28;20373;-77
2022/08/13 08:44:48;;;;;;;7.18;3.08;;;;;;;;;;5047315;28;20124;-75
2022/08/13 08:47:13;;;;;;;9.23;2.50;;;;;;;;;;5051559;28;20016;-74
2022/08/13 08:49:39;;;;;;;10.35;3.13;;;;;;;;;;5044499;28;20536;-75
2022/08/13 08:52:05;;;;;;;7.00;2.50;;;;;;;;;;5041825;28;20029;-74
2022/08/13 08:54:31;;;;;;;7.60;2.40;;;;;;;;;;5043679;28;20088;-75
2022/08/13 08:56:57;;;;;;;5.68;2.80;;;;;;;;;;5048135;28;20124;-74
2022/08/13 08:59:23;;;;;;;10.95;2.70;;;;;;;;;;5041430;28;20045;-74
2022/08/13 09:01:52;;;;;;;6.95;2.92;;;;;;;;;;5049929;28;20040;-74
2022/08/13 09:04:18;;;;;;;8.35;2.60;;;;;;;;;;5051061;28;20060;-75
2022/08/13 09:06:44;;;;;;;12.48;3.20;;;;;;;;;;5050573;28;20479;-76
2022/08/13 09:09:09;;;;;;;9.95;2.97;;;;;;;;;;5046547;28;20014;-74
2022/08/13 09:11:38;;;;;;;10.43;2.80;;;;;;;;;;5050504;28;20037;-74
2022/08/13 09:14:08;;;;;;;9.40;2.80;;;;;;;;;;5053355;28;20037;-75
2022/08/13 09:16:38;;;;;;;6.43;2.80;;;;;;;;;;5051043;28;20032;-76
2022/08/13 09:19:06;;;;;;;10.43;2.97;;;;;;;;;;5049551;28;20044;-77
2022/08/13 09:21:32;;;;;;;6.78;2.78;;;;;;;;;;5052990;28;20453;-75
2022/08/13 09:23:57;;;;;;;19.17;2.88;;;;;;;;;;5051519;28;20017;-75
2022/08/13 09:26:23;;;;;;;6.53;2.60;;;;;;;;;;5046184;28;20120;-75
2022/08/13 09:28:49;;;;;;;5.70;2.58;;;;;;;;;;5050791;28;20025;-75
2022/08/13 09:31:16;;;;;;;8.88;2.80;;;;;;;;;;5051666;28;20029;-75
2022/08/13 09:33:41;;;;;;;6.57;2.70;;;;;;;;;;5048170;28;20083;-76
2022/08/13 09:36:09;;;;;;;6.57;2.50;;;;;;;;;;5051700;28;20048;-77
2022/08/13 09:38:35;;;;;;;6.85;3.00;;;;;;;;;;5047530;28;20247;-76
2022/08/13 09:41:18;;;;;;;10.48;2.60;;;;;;;;;;5039504;28;20370;-77
2022/08/13 09:43:44;;;;;;;4.97;2.40;;;;;;;;;;5033157;28;20021;-77
2022/08/13 09:46:10;;;;;;;6.05;2.90;;;;;;;;;;5040582;28;20389;-74
2022/08/13 09:48:35;;;;;;;11.98;3.00;;;;;;;;;;5039693;28;20368;-76
2022/08/13 09:51:02;;;;;;;7.18;2.50;;;;;;;;;;5039177;28;20032;-76
2022/08/13 09:53:28;;;;;;;9.20;2.78;;;;;;;;;;5038202;28;20053;-76
2022/08/13 09:55:53;;;;;;;11.77;2.85;;;;;;;;;;5038650;28;20017;-75
2022/08/13 09:58:19;;;;;;;5.90;2.40;;;;;;;;;;5036961;28;20021;-75
2022/08/13 10:00:46;;;;;;;5.30;2.67;;;;;;;;;;5042303;28;20315;-77
2022/08/13 10:03:12;;;;;;;9.63;2.85;;;;;;;;;;5036000;28;20025;-74
2022/08/13 10:05:38;;;;;;;4.85;2.40;;;;;;;;;;5038840;28;20024;-75
2022/08/13 10:08:12;;;;;;;6.05;2.80;;;;;;;;;;5034755;28;20033;-74
2022/08/13 10:10:37;;;;;;;4.78;2.60;;;;;;;;;;5036896;28;20472;-74
2022/08/13 10:13:03;;;;;;;10.27;3.08;;;;;;;;;;5038468;28;20040;-75
2022/08/13 10:15:29;;;;;;;10.13;2.83;;;;;;;;;;5047356;28;20055;-74
2022/08/13 10:17:55;;;;;;;9.02;2.50;;;;;;;;;;5041745;28;20030;-75
2022/08/13 10:20:21;;;;;;;8.13;2.75;;;;;;;;;;5048780;28;20040;-75
2022/08/13 10:22:47;;;;;;;9.00;2.63;;;;;;;;;;5044773;28;20049;-77
2022/08/13 10:25:13;;;;;;;9.85;3.13;;;;;;;;;;5041021;28;20124;-75
2022/08/13 10:27:38;;;;;;;8.10;2.55;;;;;;;;;;5040501;28;20060;-75
2022/08/13 10:30:05;;;;;;;6.00;2.80;;;;;;;;;;5037278;28;20053;-75
2022/08/13 10:32:30;;;;;;;8.30;2.78;;;;;;;;;;5047329;28;20029;-75
2022/08/13 10:34:55;;;;;;;8.13;2.58;;;;;;;;;;5041742;28;20443;-75
2022/08/13 10:37:21;;;;;;;8.95;2.83;;;;;;;;;;5046917;28;20022;-76
2022/08/13 10:39:47;;;;;;;12.52;2.75;;;;;;;;;;5051825;28;20021;-76
2022/08/13 10:42:12;;;;;;;7.35;2.60;;;;;;;;;;5044074;28;20029;-74
2022/08/13 10:44:38;;;;;;;10.32;2.90;;;;;;;;;;5043039;28;20052;-74
2022/08/13 10:47:04;;;;;;;5.07;2.42;;;;;;;;;;5046049;28;20033;-74
2022/08/13 10:49:29;;;;;;;4.28;2.38;;;;;;;;;;5048354;28;20033;-74
2022/08/13 10:51:54;;;;;;;5.38;2.20;;;;;;;;;;5048842;28;20031;-74
2022/08/13 10:54:20;;;;;;;7.20;2.30;;;;;;;;;;5033981;28;20473;-74
2022/08/13 10:56:45;;;;;;;5.70;2.30;;;;;;;;;;5037680;28;20028;-74
2022/08/13 10:59:10;;;;;;;5.68;2.47;;;;;;;;;;5043510;28;20032;-75
2022/08/13 11:01:36;;;;;;;5.63;2.42;;;;;;;;;;5047355;28;20423;-75
2022/08/13 11:04:02;;;;;;;5.25;2.33;;;;;;;;;;5044208;28;20415;-75
2022/08/13 11:06:28;;;;;;;6.03;2.42;;;;;;;;;;5046635;28;20479;-74
2022/08/13 11:08:54;;;;;;;5.68;2.17;;;;;;;;;;5041792;28;20013;-76
2022/08/13 11:11:20;;;;;;;4.10;2.25;;;;;;;;;;5043469;28;20115;-75
2022/08/13 11:13:45;;;;;;;9.38;2.55;;;;;;;;;;5042099;28;20029;-74
2022/08/13 11:18:55;;;;;;;5.28;2.28;;;;;;;;;;5040623;28;20087;-75
2022/08/13 11:21:21;;;;;;;9.65;2.55;;;;;;;;;;5047951;28;20029;-75
2022/08/13 11:23:46;;;;;;;6.82;2.55;;;;;;;;;;5045606;28;20095;-75
2022/08/13 11:26:12;;;;;;;4.32;2.10;;;;;;;;;;5050218;28;20187;-75
2022/08/13 11:28:37;;;;;;;11.32;3.47;;;;;;;;;;5044039;28;20033;-75
2022/08/13 11:31:02;;;;;;;8.70;2.47;;;;;;;;;;5036885;28;20037;-74
2022/08/13 11:33:28;;;;;;;5.30;2.17;;;;;;;;;;5040969;28;20033;-74
2022/08/13 11:35:53;;;;;;;10.25;2.42;;;;;;;;;;5047366;28;20561;-74
2022/08/13 11:38:20;;;;;;;10.27;2.67;;;;;;;;;;5048208;28;20025;-74
2022/08/13 11:40:55;;;;;;;3.42;2.20;;;;;;;;;;5047971;28;20029;-75
2022/08/13 11:43:21;;;;;;;8.98;2.63;;;;;;;;;;5033746;28;20057;-74
2022/08/13 11:45:48;;;;;;;7.43;2.22;;;;;;;;;;5044632;28;20044;-75
2022/08/13 11:48:13;;;;;;;9.43;2.47;;;;;;;;;;5046237;28;20021;-74
2022/08/13 11:50:39;;;;;;;5.95;2.20;;;;;;;;;;5042364;28;20033;-74
2022/08/13 11:53:04;;;;;;;7.00;2.92;;;;;;;;;;5039753;28;20383;-74
2022/08/13 11:55:29;;;;;;;6.47;2.50;;;;;;;;;;5037957;28;20022;-74
2022/08/13 11:58:02;;;;;;;5.03;2.65;;;;;;;;;;5039793;28;20033;-74
2022/08/13 12:00:27;;;;;;;4.60;2.83;;;;;;;;;;5041134;28;20501;-74
2022/08/13 12:02:53;;;;;;;4.95;2.35;;;;;;;;;;5045000;28;20029;-75
2022/08/13 12:05:18;;;;;;;7.22;2.25;;;;;;;;;;5040886;28;20029;-74
2022/08/13 12:07:43;;;;;;;9.15;2.70;;;;;;;;;;5047677;28;20112;-74
2022/08/13 12:10:09;;;;;;;11.52;2.75;;;;;;;;;;5038787;28;20097;-75
2022/08/13 12:12:34;;;;;;;7.43;2.95;;;;;;;;;;5045361;28;20078;-75
2022/08/13 12:14:59;;;;;;;5.55;2.63;;;;;;;;;;5039880;28;20037;-74
2022/08/13 12:17:25;;;;;;;5.57;2.40;;;;;;;;;;5038338;28;20507;-74
2022/08/13 12:19:50;;;;;;;9.30;2.92;;;;;;;;;;5036690;28;20025;-75
2022/08/13 12:22:15;;;;;;;6.65;2.40;;;;;;;;;;5044278;28;20072;-75
2022/08/13 12:24:41;;;;;;;6.85;2.92;;;;;;;;;;5046851;28;20025;-74
2022/08/13 12:27:06;;;;;;;4.13;2.50;;;;;;;;;;5038466;28;20030;-75
2022/08/13 12:29:31;;;;;;;6.70;3.05;;;;;;;;;;5047113;28;20357;-74
2022/08/13 12:31:57;;;;;;;6.97;2.88;;;;;;;;;;5050264;28;20102;-74
2022/08/13 12:34:22;;;;;;;7.95;2.45;;;;;;;;;;5050376;28;20071;-74
2022/08/13 12:36:48;;;;;;;7.45;2.65;;;;;;;;;;5052302;28;20094;-74
2022/08/13 12:39:13;;;;;;;4.65;2.50;;;;;;;;;;5046349;28;20071;-75
2022/08/13 12:41:38;;;;;;;9.95;2.40;;;;;;;;;;5052082;28;20033;-75
2022/08/13 12:44:04;;;;;;;8.48;2.90;;;;;;;;;;5049074;28;20036;-75
2022/08/13 12:46:29;;;;;;;5.75;2.80;;;;;;;;;;5052291;28;20027;-75
2022/08/13 12:48:54;;;;;;;4.72;2.70;;;;;;;;;;5053046;28;20388;-74
2022/08/13 12:51:20;;;;;;;5.70;2.70;;;;;;;;;;5047746;28;20108;-74
2022/08/13 12:53:45;;;;;;;4.53;2.72;;;;;;;;;;5047172;28;20033;-74
2022/08/13 12:56:11;;;;;;;7.88;3.10;;;;;;;;;;5050984;28;20534;-74
2022/08/13 12:58:37;;;;;;;5.57;2.70;;;;;;;;;;5053212;28;20033;-74
2022/08/13 13:01:02;;;;;;;6.70;2.85;;;;;;;;;;5052178;28;20033;-74
2022/08/13 13:03:27;;;;;;;8.93;2.70;;;;;;;;;;5049198;28;20162;-74
2022/08/13 13:05:53;;;;;;;8.27;3.10;;;;;;;;;;5035982;28;20397;-74
2022/08/13 13:08:25;;;;;;;6.07;2.47;;;;;;;;;;5041049;28;20048;-74
2022/08/13 13:10:51;;;;;;;7.65;2.63;;;;;;;;;;5038410;28;20358;-75
2022/08/13 13:13:17;;;;;;;7.03;2.42;;;;;;;;;;5042155;28;20072;-74
2022/08/13 13:15:42;;;;;;;6.47;2.50;;;;;;;;;;5040606;28;20103;-75
2022/08/13 13:18:12;;;;;;;9.40;2.72;;;;;;;;;;5044327;28;20064;-74
2022/08/13 13:20:41;;;;;;;4.75;2.55;;;;;;;;;;5044536;28;20036;-74
2022/08/13 13:23:06;;;;;;;6.00;2.83;;;;;;;;;;5051179;28;20060;-74
2022/08/13 13:25:31;;;;;;;7.85;2.88;;;;;;;;;;5048440;28;20447;-74
2022/08/13 13:27:57;;;;;;;8.75;2.60;;;;;;;;;;5051273;28;20036;-74
2022/08/13 13:30:22;;;;;;;4.13;2.33;;;;;;;;;;5050217;28;20014;-74
2022/08/13 13:32:48;;;;;;;6.78;2.50;;;;;;;;;;5049291;28;20025;-75
2022/08/13 13:35:13;;;;;;;6.72;3.20;;;;;;;;;;5050021;28;20437;-74
2022/08/13 13:37:45;;;;;;;4.10;2.30;;;;;;;;;;5054789;28;20025;-74
2022/08/13 13:40:11;;;;;;;4.60;2.58;;;;;;;;;;5038244;28;20429;-74
2022/08/13 13:42:36;;;;;;;6.97;2.90;;;;;;;;;;5044319;28;20486;-74
2022/08/13 13:45:02;;;;;;;6.65;3.20;;;;;;;;;;5040756;28;20056;-74
2022/08/13 13:47:30;;;;;;;9.90;2.50;;;;;;;;;;5039372;28;20042;-74
2022/08/13 13:49:56;;;;;;;7.00;2.35;;;;;;;;;;5039545;28;20049;-74
2022/08/13 13:52:21;;;;;;;4.53;2.45;;;;;;;;;;5036494;28;20037;-74
2022/08/13 13:54:49;;;;;;;5.07;2.53;;;;;;;;;;5047497;28;20446;-74
2022/08/13 13:57:15;;;;;;;4.60;2.42;;;;;;;;;;5036772;28;20033;-74
2022/08/13 13:59:40;;;;;;;11.70;2.78;;;;;;;;;;5038078;28;20026;-74
2022/08/13 14:02:05;;;;;;;5.13;2.88;;;;;;;;;;5042946;28;20021;-74
2022/08/13 14:04:30;;;;;;;4.35;2.22;;;;;;;;;;5048410;28;20032;-74
2022/08/13 14:07:05;;;;;;;5.03;2.50;;;;;;;;;;5045859;28;20009;-75
2022/08/13 14:09:30;;;;;;;7.30;2.65;;;;;;;;;;5033623;28;20040;-74
2022/08/13 14:11:56;;;;;;;9.95;2.80;;;;;;;;;;5047566;28;20032;-74
2022/08/13 14:14:22;;;;;;;7.93;2.78;;;;;;;;;;5053392;28;20476;-74
2022/08/13 14:16:48;;;;;;;5.60;2.78;;;;;;;;;;5044549;28;20029;-74
2022/08/13 14:19:14;;;;;;;9.45;2.53;;;;;;;;;;5047622;28;20472;-74
2022/08/13 14:21:39;;;;;;;7.00;2.95;;;;;;;;;;5048984;28;21250;-74
2022/08/13 14:24:04;;;;;;;4.35;2.60;;;;;;;;;;5053043;28;20032;-74
2022/08/13 14:26:30;;;;;;;11.32;2.80;;;;;;;;;;5039660;28;20036;-74
2022/08/13 14:28:56;;;;;;;7.03;2.90;;;;;;;;;;5050758;28;20036;-74
2022/08/13 14:31:22;;;;;;;4.20;2.55;;;;;;;;;;5045927;28;20028;-74
2022/08/13 14:33:47;;;;;;;10.15;2.90;;;;;;;;;;5045850;28;20116;-74
2022/08/13 14:36:13;;;;;;;8.15;2.80;;;;;;;;;;5039770;28;20067;-75
2022/08/13 14:38:39;;;;;;;6.20;2.40;;;;;;;;;;5043155;28;20031;-75
2022/08/13 14:41:04;;;;;;;5.38;2.70;;;;;;;;;;5046999;28;20107;-75
2022/08/13 14:43:30;;;;;;;9.50;2.92;;;;;;;;;;5045102;28;20022;-74
2022/08/13 14:45:57;;;;;;;6.85;2.63;;;;;;;;;;5046542;28;20029;-74
2022/08/13 14:48:24;;;;;;;3.90;2.47;;;;;;;;;;5040409;28;20104;-75
2022/08/13 14:50:54;;;;;;;6.57;2.45;;;;;;;;;;5042395;28;20049;-74
2022/08/13 14:53:19;;;;;;;6.30;2.78;;;;;;;;;;5044709;28;20446;-74